createdAt,value
2017-08-18T00:00:10.545Z,91.88
2017-08-18T00:02:38.985Z,91.91
2017-08-18T00:05:07.436Z,91.61
2017-08-18T00:07:35.901Z,91.46
2017-08-18T00:10:04.387Z,91.92
2017-08-18T00:12:32.867Z,91.84
2017-08-18T00:15:01.335Z,92.09
2017-08-18T00:17:29.819Z,91.41
2017-08-18T00:19:58.276Z,92.13
2017-08-18T00:22:27.522Z,92.38
2017-08-18T00:24:55.981Z,92.18
2017-08-18T00:27:24.421Z,92.14
2017-08-18T00:29:52.938Z,92.13
2017-08-18T00:32:21.373Z,92.61
2017-08-18T00:34:49.799Z,92.18
2017-08-18T00:37:18.292Z,92.91
2017-08-18T00:39:46.782Z,93.14
2017-08-18T00:42:15.255Z,91.89
2017-08-18T00:44:43.684Z,92.35
2017-08-18T00:47:12.131Z,92.42
2017-08-18T00:49:40.562Z,92.36
2017-08-18T00:52:09.797Z,92.51
2017-08-18T00:54:38.285Z,92.45
2017-08-18T00:57:06.758Z,92.93
2017-08-18T00:59:35.254Z,92.16
2017-08-18T01:02:03.723Z,92.32
2017-08-18T01:04:32.209Z,92.26
2017-08-18T01:07:00.703Z,92.55
2017-08-18T01:09:29.142Z,92.30
2017-08-18T01:11:58.468Z,92.75
2017-08-18T01:14:26.945Z,92.20
2017-08-18T01:16:55.441Z,92.71
2017-08-18T01:19:23.926Z,92.62
2017-08-18T01:21:52.358Z,93.35
2017-08-18T01:24:21.606Z,93.06
2017-08-18T01:26:50.037Z,92.81
2017-08-18T01:29:18.559Z,93.03
2017-08-18T01:31:47.053Z,92.43
2017-08-18T01:34:15.539Z,93.02
2017-08-18T01:36:43.967Z,92.45
2017-08-18T01:39:13.198Z,92.72
2017-08-18T01:41:41.684Z,92.60
2017-08-18T01:44:10.178Z,92.53
2017-08-18T01:46:38.647Z,92.57
2017-08-18T01:49:07.118Z,92.91
2017-08-18T01:51:35.621Z,92.40
2017-08-18T01:54:04.089Z,92.27
2017-08-18T01:56:32.575Z,92.42
2017-08-18T01:59:01.055Z,92.22
2017-08-18T02:01:29.493Z,92.51
2017-08-18T02:03:57.953Z,92.34
2017-08-18T02:06:26.379Z,92.72
2017-08-18T02:08:55.699Z,93.07
2017-08-18T02:11:24.136Z,92.84
2017-08-18T02:13:52.583Z,92.52
2017-08-18T02:16:21.043Z,93.37
2017-08-18T02:18:49.526Z,93.01
2017-08-18T02:21:18.007Z,92.51
2017-08-18T02:23:46.604Z,92.28
2017-08-18T02:26:15.076Z,92.42
2017-08-18T02:28:43.503Z,92.23
2017-08-18T02:31:12.045Z,92.02
2017-08-18T02:33:40.529Z,92.47
2017-08-18T02:36:08.998Z,93.26
2017-08-18T02:38:37.488Z,92.49
2017-08-18T02:41:05.943Z,93.03
2017-08-18T02:43:35.163Z,92.77
2017-08-18T02:46:03.625Z,92.96
2017-08-18T02:48:32.818Z,93.51
2017-08-18T02:51:02.165Z,93.53
2017-08-18T02:53:30.603Z,93.37
2017-08-18T02:55:59.927Z,93.50
2017-08-18T02:58:28.351Z,93.28
2017-08-18T03:00:56.904Z,93.66
2017-08-18T03:03:25.381Z,93.71
2017-08-18T03:05:53.856Z,94.19
2017-08-18T03:08:22.338Z,94.52
2017-08-18T03:10:50.831Z,94.08
2017-08-18T03:13:19.292Z,94.79
2017-08-18T03:15:47.783Z,94.47
2017-08-18T03:18:16.284Z,94.71
2017-08-18T03:20:44.711Z,94.47
2017-08-18T03:23:13.943Z,94.01
2017-08-18T03:25:42.367Z,94.35
2017-08-18T03:28:10.830Z,94.49
2017-08-18T03:30:39.297Z,94.27
2017-08-18T03:33:07.764Z,94.01
2017-08-18T03:35:36.200Z,94.11
2017-08-18T03:38:04.647Z,93.75
2017-08-18T03:40:33.077Z,93.80
2017-08-18T03:43:02.306Z,93.47
2017-08-18T03:45:30.807Z,93.56
2017-08-18T03:47:59.269Z,93.43
2017-08-18T03:50:27.699Z,93.62
2017-08-18T03:52:56.238Z,93.62
2017-08-18T03:55:24.719Z,93.31
2017-08-18T03:57:53.180Z,93.23
2017-08-18T04:00:21.617Z,92.98
2017-08-18T04:02:50.073Z,92.90
2017-08-18T04:05:18.504Z,92.59
2017-08-18T04:07:46.969Z,92.51
2017-08-18T04:10:15.408Z,92.52
2017-08-18T04:12:43.901Z,92.14
2017-08-18T04:15:12.371Z,92.25
2017-08-18T04:17:40.824Z,92.64
2017-08-18T04:20:10.056Z,92.73
2017-08-18T04:22:38.540Z,92.78
2017-08-18T04:25:07.002Z,92.89
2017-08-18T04:27:35.496Z,92.82
2017-08-18T04:30:03.979Z,93.10
2017-08-18T04:32:32.463Z,92.80
2017-08-18T04:35:00.954Z,92.66
2017-08-18T04:37:29.400Z,92.79
2017-08-18T04:39:58.723Z,92.88
2017-08-18T04:42:27.216Z,92.77
2017-08-18T04:44:55.673Z,92.91
2017-08-18T04:47:24.107Z,92.36
2017-08-18T04:49:52.568Z,92.15
2017-08-18T04:52:20.999Z,92.15
2017-08-18T04:54:50.215Z,91.75
2017-08-18T04:57:18.652Z,91.83
2017-08-18T04:59:47.211Z,91.38
2017-08-18T05:02:15.690Z,91.63
2017-08-18T05:04:44.159Z,91.45
2017-08-18T05:07:12.651Z,91.11
2017-08-18T05:09:41.126Z,90.79
2017-08-18T05:12:09.618Z,90.85
2017-08-18T05:14:38.097Z,90.76
2017-08-18T05:17:06.541Z,90.38
2017-08-18T05:19:35.765Z,90.36
2017-08-18T05:22:04.256Z,89.96
2017-08-18T05:24:32.707Z,90.09
2017-08-18T05:27:01.911Z,90.33
2017-08-18T05:29:30.359Z,90.37
2017-08-18T05:31:58.787Z,90.01
2017-08-18T05:34:27.285Z,90.60
2017-08-18T05:36:55.728Z,90.29
2017-08-18T05:39:25.060Z,90.32
2017-08-18T05:41:53.501Z,90.43
2017-08-18T05:44:22.745Z,90.01
2017-08-18T05:46:51.215Z,89.25
2017-08-18T05:49:19.652Z,89.22
2017-08-18T05:51:48.189Z,89.04
2017-08-18T05:54:16.632Z,88.99
2017-08-18T05:56:45.860Z,88.72
2017-08-18T05:59:14.352Z,88.85
2017-08-18T06:01:42.837Z,89.10
2017-08-18T06:04:11.271Z,88.39
2017-08-18T06:06:40.508Z,87.78
2017-08-18T06:09:08.987Z,87.10
2017-08-18T06:11:37.460Z,86.91
2017-08-18T06:14:05.960Z,86.18
2017-08-18T06:16:34.445Z,85.46
2017-08-18T06:19:02.927Z,85.16
2017-08-18T06:21:31.399Z,84.56
2017-08-18T06:23:59.841Z,83.87
2017-08-18T06:26:29.188Z,83.21
2017-08-18T06:28:57.664Z,83.80
2017-08-18T06:31:26.131Z,82.96
2017-08-18T06:33:54.627Z,83.08
2017-08-18T06:36:23.212Z,83.31
2017-08-18T06:38:51.648Z,84.26
2017-08-18T06:41:20.170Z,83.87
2017-08-18T06:43:48.692Z,83.92
2017-08-18T06:46:17.128Z,84.11
2017-08-18T06:48:45.619Z,83.74
2017-08-18T06:51:14.056Z,83.57
2017-08-18T06:53:42.517Z,84.05
2017-08-18T06:56:10.973Z,83.04
2017-08-18T06:58:39.457Z,83.12
2017-08-18T07:01:07.938Z,82.95
2017-08-18T07:03:36.401Z,82.40
2017-08-18T07:06:04.894Z,82.25
2017-08-18T07:08:33.371Z,81.56
2017-08-18T07:11:01.864Z,81.06
2017-08-18T07:13:30.345Z,80.73
2017-08-18T07:15:58.818Z,79.95
2017-08-18T07:18:27.299Z,79.40
2017-08-18T07:20:55.795Z,79.51
2017-08-18T07:23:24.256Z,77.79
2017-08-18T07:25:52.744Z,77.26
2017-08-18T07:28:21.244Z,77.20
2017-08-18T07:30:49.701Z,76.97
2017-08-18T07:33:18.191Z,76.81
2017-08-18T07:35:46.661Z,76.52
2017-08-18T07:38:15.105Z,76.44
2017-08-18T07:40:43.569Z,75.79
2017-08-18T07:43:12.025Z,75.33
2017-08-18T07:45:40.510Z,73.26
2017-08-18T07:48:08.950Z,74.07
2017-08-18T07:50:38.280Z,74.88
2017-08-18T07:53:06.712Z,73.42
2017-08-18T07:55:35.176Z,73.84
2017-08-18T07:58:03.617Z,74.33
2017-08-18T08:00:32.117Z,73.81
2017-08-18T08:03:00.551Z,74.86
2017-08-18T08:05:29.767Z,74.72
2017-08-18T08:07:58.276Z,74.46
2017-08-18T08:10:26.749Z,74.42
2017-08-18T08:12:55.235Z,74.52
2017-08-18T08:15:23.715Z,74.76
2017-08-18T08:17:52.206Z,74.50
2017-08-18T08:20:20.679Z,73.90
2017-08-18T08:22:49.160Z,73.99
2017-08-18T08:25:17.639Z,72.58
2017-08-18T08:27:46.124Z,72.53
2017-08-18T08:30:14.564Z,72.42
2017-08-18T08:32:43.084Z,71.64
2017-08-18T08:35:11.525Z,71.24
2017-08-18T08:37:40.270Z,70.98
2017-08-18T08:40:08.749Z,70.10
2017-08-18T08:42:37.230Z,69.67
2017-08-18T08:45:05.713Z,69.73
2017-08-18T08:47:34.194Z,69.13
2017-08-18T08:50:02.637Z,69.28
2017-08-18T08:52:31.879Z,68.10
2017-08-18T08:55:00.358Z,67.80
2017-08-18T08:57:28.807Z,68.31
2017-08-18T08:59:57.249Z,68.17
2017-08-18T09:02:25.717Z,67.26
2017-08-18T09:04:54.152Z,66.92
2017-08-18T09:07:22.620Z,67.32
2017-08-18T09:09:51.127Z,67.37
2017-08-18T09:12:19.833Z,67.54
2017-08-18T09:14:48.299Z,67.19
2017-08-18T09:17:16.751Z,67.89
2017-08-18T09:19:45.189Z,68.05
2017-08-18T09:22:13.655Z,67.53
2017-08-18T09:24:42.127Z,67.19
2017-08-18T09:27:10.616Z,67.96
2017-08-18T09:29:39.073Z,68.02
2017-08-18T09:32:07.566Z,66.70
2017-08-18T09:34:36.051Z,66.15
2017-08-18T09:37:04.544Z,65.18
2017-08-18T09:39:33.003Z,66.45
2017-08-18T09:42:01.518Z,66.29
2017-08-18T09:44:29.989Z,66.35
2017-08-18T09:46:58.424Z,64.79
2017-08-18T09:49:45.477Z,64.63
2017-08-18T09:52:30.655Z,64.26
2017-08-18T09:58:22.161Z,63.98
2017-08-18T10:00:51.395Z,63.75
2017-08-18T10:03:19.871Z,62.46
2017-08-18T10:05:48.359Z,63.26
2017-08-18T10:08:16.849Z,64.56
2017-08-18T10:10:45.316Z,64.54
2017-08-18T10:13:13.799Z,65.35
2017-08-18T10:18:10.050Z,64.69
2017-08-18T10:20:38.500Z,64.40
2017-08-18T10:23:07.025Z,64.02
2017-08-18T10:25:35.511Z,63.26
2017-08-18T10:28:03.941Z,63.28
2017-08-18T10:30:32.455Z,63.14
2017-08-18T10:33:00.875Z,63.30
2017-08-18T10:35:29.424Z,62.58
2017-08-18T10:37:57.902Z,62.43
2017-08-18T10:40:26.388Z,63.05
2017-08-18T10:42:54.876Z,64.19
2017-08-18T10:45:23.360Z,64.20
2017-08-18T10:47:51.789Z,63.34
2017-08-18T10:50:20.256Z,63.21
2017-08-18T10:52:48.700Z,63.09
2017-08-18T10:55:17.170Z,63.26
2017-08-18T10:57:45.643Z,64.49
2017-08-18T11:00:14.072Z,65.42
2017-08-18T11:02:42.628Z,64.70
2017-08-18T11:05:11.099Z,64.87
2017-08-18T11:07:39.707Z,64.34
2017-08-18T11:10:08.176Z,63.82
2017-08-18T11:12:36.655Z,63.58
2017-08-18T11:15:05.072Z,63.07
2017-08-18T11:17:33.526Z,63.07
2017-08-18T11:20:02.010Z,63.79
2017-08-18T11:22:30.459Z,63.89
2017-08-18T11:24:59.660Z,64.13
2017-08-18T11:27:28.103Z,64.46
2017-08-18T11:29:56.648Z,64.89
2017-08-18T11:32:25.108Z,64.24
2017-08-18T11:34:53.613Z,64.82
2017-08-18T11:37:22.097Z,64.60
2017-08-18T11:39:50.536Z,64.97
2017-08-18T11:42:19.063Z,64.80
2017-08-18T11:44:47.536Z,65.12
2017-08-18T11:47:16.016Z,65.54
2017-08-18T11:49:44.509Z,65.09
2017-08-18T11:52:12.928Z,66.27
2017-08-18T11:54:41.459Z,67.46
2017-08-18T11:57:09.972Z,67.69
2017-08-18T11:59:38.488Z,68.43
2017-08-18T12:02:07.743Z,68.22
2017-08-18T12:04:36.312Z,68.46
2017-08-18T12:07:04.791Z,69.64
2017-08-18T12:09:33.282Z,68.84
2017-08-18T12:12:01.729Z,71.65
2017-08-18T12:14:30.188Z,71.25
2017-08-18T12:16:58.660Z,70.40
2017-08-18T12:19:27.204Z,70.58
2017-08-18T12:21:55.690Z,71.63
2017-08-18T12:24:24.304Z,72.00
2017-08-18T12:26:52.731Z,72.27
2017-08-18T12:29:21.174Z,72.36
2017-08-18T12:31:49.722Z,74.83
2017-08-18T12:34:18.204Z,74.25
2017-08-18T12:36:46.673Z,76.90
2017-08-18T12:39:15.109Z,75.92
2017-08-18T12:41:43.645Z,76.77
2017-08-18T12:44:12.084Z,77.05
2017-08-18T12:46:41.323Z,78.23
2017-08-18T12:49:09.764Z,79.87
2017-08-18T12:51:38.989Z,79.81
2017-08-18T12:54:07.426Z,80.98
2017-08-18T12:56:35.959Z,82.47
2017-08-18T12:59:04.452Z,81.50
2017-08-18T13:01:33.036Z,82.85
2017-08-18T13:04:01.500Z,82.00
2017-08-18T13:06:29.999Z,82.63
2017-08-18T13:08:58.471Z,85.24
2017-08-18T13:11:26.955Z,84.60
2017-08-18T13:13:55.440Z,85.49
2017-08-18T13:16:23.887Z,84.08
2017-08-18T13:18:53.119Z,84.02
2017-08-18T13:21:21.616Z,85.50
2017-08-18T13:23:50.055Z,85.49
2017-08-18T13:26:19.394Z,86.38
2017-08-18T13:28:47.844Z,86.64
2017-08-18T13:31:17.064Z,84.92
2017-08-18T13:33:45.543Z,86.57
2017-08-18T13:36:13.995Z,85.77
2017-08-18T13:38:42.427Z,86.72
2017-08-18T13:41:11.002Z,87.61
2017-08-18T13:43:39.471Z,88.62
2017-08-18T13:46:07.955Z,87.95
2017-08-18T13:48:36.411Z,88.35
2017-08-18T13:51:04.919Z,89.19
2017-08-18T13:53:33.377Z,89.62
2017-08-18T13:56:01.889Z,89.41
2017-08-18T13:58:30.380Z,89.22
2017-08-18T14:00:58.839Z,88.02
2017-08-18T14:03:27.291Z,88.49
2017-08-18T14:05:56.529Z,88.38
2017-08-18T14:08:25.026Z,86.85
2017-08-18T14:10:53.479Z,84.79
2017-08-18T14:13:21.961Z,85.89
2017-08-18T14:15:50.451Z,86.99
2017-08-18T14:18:18.932Z,85.03
2017-08-18T14:20:47.369Z,85.26
2017-08-18T14:23:15.809Z,86.65
2017-08-18T14:28:49.515Z,85.16
2017-08-18T14:31:18.009Z,85.43
2017-08-18T14:33:46.489Z,87.64
2017-08-18T14:36:14.978Z,86.09
2017-08-18T14:38:43.454Z,86.81
2017-08-18T14:41:11.928Z,85.88
2017-08-18T14:43:40.383Z,87.63
2017-08-18T14:46:09.603Z,87.16
2017-08-18T14:48:38.903Z,88.74
2017-08-18T14:51:07.332Z,88.44
2017-08-18T14:53:35.772Z,87.77
2017-08-18T14:56:04.208Z,87.99
2017-08-18T14:58:32.670Z,87.68
2017-08-18T15:01:01.110Z,87.80
2017-08-18T15:03:29.608Z,87.97
2017-08-18T15:05:58.089Z,88.41
2017-08-18T15:08:26.567Z,88.34
2017-08-18T15:10:55.056Z,88.22
2017-08-18T15:13:23.493Z,88.90
2017-08-18T15:15:52.703Z,88.47
2017-08-18T15:18:21.903Z,89.56
2017-08-18T15:20:51.234Z,90.48
2017-08-18T15:23:19.712Z,90.66
2017-08-18T15:25:48.159Z,90.42
2017-08-18T15:28:17.387Z,89.76
2017-08-18T15:30:45.870Z,90.67
2017-08-18T15:33:14.367Z,90.48
2017-08-18T15:35:42.829Z,91.43
2017-08-18T15:38:11.305Z,92.07
2017-08-18T15:40:39.765Z,92.93
2017-08-18T15:43:09.001Z,92.07
2017-08-18T15:45:37.469Z,91.87
2017-08-18T15:48:05.899Z,91.56
2017-08-18T15:50:34.449Z,88.05
2017-08-18T15:53:02.929Z,87.81
2017-08-18T15:55:31.399Z,88.33
2017-08-18T15:57:59.883Z,88.24
2017-08-18T16:00:28.341Z,88.29
2017-08-18T16:02:57.577Z,89.71
2017-08-18T16:05:26.027Z,89.55
2017-08-18T16:07:55.257Z,88.55
2017-08-18T16:10:23.738Z,89.64
2017-08-18T16:12:52.163Z,88.73
2017-08-18T16:15:20.702Z,88.38
2017-08-18T16:17:49.130Z,87.32
2017-08-18T16:20:17.668Z,87.54
2017-08-18T16:22:46.142Z,87.10
2017-08-18T16:25:14.616Z,88.32
2017-08-18T16:27:43.098Z,87.15
2017-08-18T16:30:11.571Z,88.44
2017-08-18T16:32:40.064Z,87.10
2017-08-18T16:35:08.553Z,88.63
2017-08-18T16:37:37.021Z,89.65
2017-08-18T16:40:05.443Z,88.87
2017-08-18T16:42:34.007Z,89.26
2017-08-18T16:45:02.471Z,88.54
2017-08-18T16:47:30.951Z,88.52
2017-08-18T16:49:59.385Z,88.54
2017-08-18T16:52:27.931Z,89.49
2017-08-18T16:54:56.412Z,88.90
2017-08-18T16:57:24.888Z,88.43
2017-08-18T16:59:53.412Z,87.80
2017-08-18T17:02:21.959Z,87.37
2017-08-18T17:04:50.427Z,86.89
2017-08-18T17:07:18.867Z,89.20
2017-08-18T17:09:47.302Z,88.51
2017-08-18T17:12:15.767Z,87.98
2017-08-18T17:14:44.260Z,88.88
2017-08-18T17:17:12.736Z,89.24
2017-08-18T17:19:41.211Z,88.23
2017-08-18T17:22:09.655Z,88.26
2017-08-18T17:24:38.194Z,89.01
2017-08-18T17:27:06.674Z,90.04
2017-08-18T17:29:35.153Z,89.89
2017-08-18T17:32:03.638Z,88.70
2017-08-18T17:34:32.118Z,89.70
2017-08-18T17:37:00.587Z,90.47
2017-08-18T17:39:29.068Z,89.10
2017-08-18T17:41:57.560Z,89.87
2017-08-18T17:44:26.031Z,89.78
2017-08-18T17:46:54.520Z,90.02
2017-08-18T17:49:22.994Z,90.46
2017-08-18T17:51:51.415Z,89.70
2017-08-18T17:54:19.969Z,90.26
2017-08-18T17:56:48.391Z,89.83
2017-08-18T17:59:16.924Z,90.15
2017-08-18T18:01:45.451Z,90.41
2017-08-18T18:04:14.001Z,90.90
2017-08-18T18:06:42.485Z,90.99
2017-08-18T18:09:10.956Z,90.89
2017-08-18T18:11:39.448Z,90.71
2017-08-18T18:14:07.914Z,90.81
2017-08-18T18:16:36.400Z,90.94
2017-08-18T18:19:04.904Z,91.09
2017-08-18T18:21:33.337Z,91.29
2017-08-18T18:24:02.685Z,92.41
2017-08-18T18:26:31.143Z,92.17
2017-08-18T18:28:59.636Z,91.82
2017-08-18T18:31:28.093Z,92.25
2017-08-18T18:33:56.587Z,92.66
2017-08-18T18:36:25.035Z,92.19
2017-08-18T18:38:53.555Z,91.73
2017-08-18T18:41:22.004Z,91.95
2017-08-18T18:43:51.235Z,92.33
2017-08-18T18:46:19.679Z,92.60
2017-08-18T18:48:48.108Z,92.58
2017-08-18T18:51:16.561Z,93.07
2017-08-18T18:53:45.063Z,92.95
2017-08-18T18:56:13.515Z,92.95
2017-08-18T18:58:42.727Z,92.79
2017-08-18T19:01:11.233Z,92.30
2017-08-18T19:03:39.723Z,92.02
2017-08-18T19:06:08.302Z,92.47
2017-08-18T19:08:36.744Z,92.32
2017-08-18T19:11:05.950Z,92.44
2017-08-18T19:13:35.171Z,92.75
2017-08-18T19:16:03.647Z,92.22
2017-08-18T19:18:32.081Z,91.93
2017-08-18T19:21:00.616Z,92.21
2017-08-18T19:23:29.112Z,92.35
2017-08-18T19:25:57.590Z,92.61
2017-08-18T19:28:26.069Z,92.85
2017-08-18T19:30:54.548Z,92.85
2017-08-18T19:33:22.983Z,92.84
2017-08-18T19:35:51.510Z,92.91
2017-08-18T19:38:19.988Z,93.16
2017-08-18T19:40:48.432Z,93.42
2017-08-18T19:43:17.676Z,92.03
2017-08-18T19:45:46.143Z,92.86
2017-08-18T19:48:14.631Z,94.14
2017-08-18T19:50:43.047Z,94.05
2017-08-18T19:53:11.595Z,92.46
2017-08-18T19:55:40.088Z,92.39
2017-08-18T19:58:08.552Z,93.75
2017-08-18T20:00:37.047Z,93.16
2017-08-18T20:03:05.534Z,92.26
2017-08-18T20:05:34.005Z,93.27
2017-08-18T20:08:02.461Z,94.15
2017-08-18T20:10:31.697Z,93.34
2017-08-18T20:13:00.178Z,93.28
2017-08-18T20:15:28.649Z,93.87
2017-08-18T20:17:57.142Z,93.51
2017-08-18T20:20:25.620Z,93.76
2017-08-18T20:22:54.095Z,94.37
2017-08-18T20:25:22.584Z,93.58
2017-08-18T20:27:51.065Z,93.97
2017-08-18T20:30:19.545Z,94.25
2017-08-18T20:32:47.988Z,94.35
2017-08-18T20:35:17.233Z,93.83
2017-08-18T20:37:45.693Z,93.72
2017-08-18T20:40:14.708Z,94.02
2017-08-18T20:42:43.189Z,93.53
2017-08-18T20:45:11.655Z,93.94
2017-08-18T20:47:40.153Z,94.08
2017-08-18T20:50:08.635Z,93.75
2017-08-18T20:52:37.100Z,93.88
2017-08-18T20:55:05.595Z,94.02
2017-08-18T20:57:34.034Z,94.51
2017-08-18T21:00:03.257Z,94.14
2017-08-18T21:02:31.701Z,94.32
2017-08-18T21:05:00.138Z,94.61
2017-08-18T21:07:28.611Z,94.29
2017-08-18T21:09:57.108Z,95.05
2017-08-18T21:12:25.535Z,95.02
2017-08-18T21:14:54.775Z,94.36
2017-08-18T21:17:23.212Z,94.43
2017-08-18T21:19:51.745Z,94.74
2017-08-18T21:22:20.218Z,94.63
2017-08-18T21:24:48.711Z,94.79
2017-08-18T21:27:17.152Z,94.87
2017-08-18T21:29:46.479Z,95.09
2017-08-18T21:32:14.903Z,94.58
2017-08-18T21:34:43.448Z,94.76
2017-08-18T21:37:11.926Z,94.67
2017-08-18T21:39:40.389Z,95.03
2017-08-18T21:42:09.621Z,94.83
2017-08-18T21:44:38.101Z,94.59
2017-08-18T21:47:06.571Z,94.72
2017-08-18T21:49:35.066Z,94.83
2017-08-18T21:52:03.540Z,94.50
2017-08-18T21:54:31.964Z,94.62
2017-08-18T21:57:00.422Z,94.79
2017-08-18T21:59:28.875Z,94.27
2017-08-18T22:01:57.360Z,93.61
2017-08-18T22:04:25.839Z,93.87
2017-08-18T22:06:54.319Z,93.77
2017-08-18T22:09:22.815Z,93.78
2017-08-18T22:11:51.277Z,93.55
2017-08-18T22:14:19.763Z,93.66
2017-08-18T22:16:48.247Z,93.61
2017-08-18T22:19:16.732Z,93.30
2017-08-18T22:21:45.211Z,93.79
2017-08-18T22:24:13.691Z,93.69
2017-08-18T22:26:42.189Z,93.43
2017-08-18T22:29:10.671Z,92.32
2017-08-18T22:31:39.135Z,92.19
2017-08-18T22:34:07.623Z,92.17
2017-08-18T22:36:36.071Z,91.93
2017-08-18T22:39:05.308Z,92.38
2017-08-18T22:41:33.764Z,92.09
2017-08-18T22:44:02.983Z,93.16
2017-08-18T22:46:31.463Z,92.05
2017-08-18T22:48:59.960Z,92.33
2017-08-18T22:51:28.441Z,92.77
2017-08-18T22:53:56.907Z,93.32
2017-08-18T22:56:25.388Z,93.32
2017-08-18T22:58:53.811Z,93.33
2017-08-18T23:01:22.255Z,92.46
2017-08-18T23:03:50.742Z,92.00
2017-08-18T23:06:19.159Z,90.13
2017-08-18T23:08:47.609Z,91.40
2017-08-18T23:11:16.089Z,91.33
2017-08-18T23:13:44.573Z,90.58
2017-08-18T23:16:12.999Z,90.93
2017-08-18T23:18:41.461Z,91.13
2017-08-18T23:21:09.903Z,91.38
2017-08-18T23:23:38.388Z,92.18
2017-08-18T23:26:06.825Z,92.16
2017-08-18T23:28:35.281Z,92.73
2017-08-18T23:31:03.728Z,92.80
2017-08-18T23:33:32.169Z,93.10
2017-08-18T23:36:00.688Z,93.11
2017-08-18T23:38:29.186Z,92.86
2017-08-18T23:40:57.646Z,92.94
2017-08-18T23:43:26.133Z,93.01
2017-08-18T23:45:54.616Z,92.70
2017-08-18T23:48:23.119Z,92.12
2017-08-18T23:50:51.593Z,92.79
2017-08-18T23:53:20.059Z,91.80
2017-08-18T23:55:48.512Z,92.44
2017-08-18T23:58:17.707Z,91.82
